sensor_id;sensor_type;location;lat;lon;timestamp;pressure;altitude;pressure_sealevel;temperature;humidity
4735;BME280;2381;50.676;12.612;2022-08-01T00:00:56;97207.56;;;18.74;100.00
4735;BME280;2381;50.676;12.612;2022-08-01T00:03:59;97203.16;;;18.68;100.00
4735;BME280;2381;50.676;12.612;2022-08-01T00:07:02;97207.09;;;18.77;100.00
4735;BME280;2381;50.676;12.612;2022-08-01T00:10:07;97210.03;;;18.64;100.00
4735;BME280;2381;50.676;12.612;2022-08-01T00:13:12;97201.66;;;18.72;100.00
4735;BME280;2381;50.676;12.612;2022-08-01T00:16:15;97193.47;;;18.28;100.00
4735;BME280;2381;50.676;12.612;2022-08-01T00:19:18;97196.97;;;18.29;100.00
4735;BME280;2381;50.676;12.612;2022-08-01T00:22:20;97193.88;;;18.32;100.00
4735;BME280;2381;50.676;12.612;2022-08-01T00:25:23;97189.41;;;18.26;100.00
4735;BME280;2381;50.676;12.612;2022-08-01T00:28:36;97186.91;;;18.31;100.00
4735;BME280;2381;50.676;12.612;2022-08-01T00:31:38;97179.22;;;18.11;100.00
4735;BME280;2381;50.676;12.612;2022-08-01T00:34:41;97176.31;;;18.24;100.00
4735;BME280;2381;50.676;12.612;2022-08-01T00:37:44;97185.28;;;18.30;100.00
4735;BME280;2381;50.676;12.612;2022-08-01T00:40:47;97177.88;;;18.32;100.00
4735;BME280;2381;50.676;12.612;2022-08-01T00:43:51;97180.06;;;18.00;100.00
4735;BME280;2381;50.676;12.612;2022-08-01T00:46:54;97177.84;;;18.09;100.00
4735;BME280;2381;50.676;12.612;2022-08-01T00:49:57;97171.97;;;17.95;100.00
4735;BME280;2381;50.676;12.612;2022-08-01T00:53:00;97173.47;;;17.80;100.00
4735;BME280;2381;50.676;12.612;2022-08-01T00:56:03;97165.00;;;17.83;100.00
4735;BME280;2381;50.676;12.612;2022-08-01T00:59:09;97166.94;;;17.53;100.00
4735;BME280;2381;50.676;12.612;2022-08-01T01:02:14;97160.00;;;17.75;100.00
4735;BME280;2381;50.676;12.612;2022-08-01T01:05:17;97155.81;;;17.56;100.00
4735;BME280;2381;50.676;12.612;2022-08-01T01:08:24;97152.50;;;17.72;100.00
4735;BME280;2381;50.676;12.612;2022-08-01T01:11:34;97154.81;;;17.80;100.00
4735;BME280;2381;50.676;12.612;2022-08-01T01:14:42;97160.97;;;17.69;100.00
4735;BME280;2381;50.676;12.612;2022-08-01T01:17:52;97156.19;;;17.71;100.00
4735;BME280;2381;50.676;12.612;2022-08-01T01:21:00;97161.97;;;17.56;100.00
4735;BME280;2381;50.676;12.612;2022-08-01T01:24:17;97157.44;;;17.45;100.00
4735;BME280;2381;50.676;12.612;2022-08-01T01:27:28;97153.44;;;17.25;100.00
4735;BME280;2381;50.676;12.612;2022-08-01T01:30:38;97150.84;;;17.48;100.00
4735;BME280;2381;50.676;12.612;2022-08-01T01:33:43;97153.59;;;17.41;100.00
4735;BME280;2381;50.676;12.612;2022-08-01T01:36:49;97154.94;;;17.21;100.00
4735;BME280;2381;50.676;12.612;2022-08-01T01:39:53;97152.69;;;17.36;100.00
4735;BME280;2381;50.676;12.612;2022-08-01T01:42:56;97153.78;;;17.28;100.00
4735;BME280;2381;50.676;12.612;2022-08-01T01:46:02;97150.63;;;17.38;100.00
4735;BME280;2381;50.676;12.612;2022-08-01T01:49:06;97151.81;;;17.24;100.00
4735;BME280;2381;50.676;12.612;2022-08-01T01:52:13;97153.44;;;17.25;100.00
4735;BME280;2381;50.676;12.612;2022-08-01T01:55:18;97155.06;;;17.26;100.00
4735;BME280;2381;50.676;12.612;2022-08-01T01:58:22;97151.41;;;17.38;100.00
4735;BME280;2381;50.676;12.612;2022-08-01T02:01:29;97157.28;;;17.29;100.00
4735;BME280;2381;50.676;12.612;2022-08-01T02:04:53;97165.28;;;16.99;100.00
4735;BME280;2381;50.676;12.612;2022-08-01T02:08:01;97170.34;;;16.89;100.00
4735;BME280;2381;50.676;12.612;2022-08-01T02:11:05;97179.94;;;16.90;100.00
4735;BME280;2381;50.676;12.612;2022-08-01T02:14:22;97188.47;;;16.81;100.00
4735;BME280;2381;50.676;12.612;2022-08-01T02:17:27;97190.25;;;16.87;100.00
4735;BME280;2381;50.676;12.612;2022-08-01T02:20:30;97184.84;;;17.05;100.00
4735;BME280;2381;50.676;12.612;2022-08-01T02:23:34;97185.59;;;17.12;100.00
4735;BME280;2381;50.676;12.612;2022-08-01T02:26:41;97185.25;;;17.20;100.00
4735;BME280;2381;50.676;12.612;2022-08-01T02:29:50;97185.28;;;17.31;100.00
4735;BME280;2381;50.676;12.612;2022-08-01T02:32:59;97189.81;;;17.31;100.00
4735;BME280;2381;50.676;12.612;2022-08-01T02:36:05;97194.41;;;17.24;100.00
4735;BME280;2381;50.676;12.612;2022-08-01T02:39:30;97191.53;;;17.25;100.00
4735;BME280;2381;50.676;12.612;2022-08-01T02:42:34;97195.75;;;17.15;100.00
4735;BME280;2381;50.676;12.612;2022-08-01T02:45:43;97196.13;;;17.18;100.00
4735;BME280;2381;50.676;12.612;2022-08-01T02:48:52;97193.03;;;17.33;100.00
4735;BME280;2381;50.676;12.612;2022-08-01T02:51:56;97190.66;;;17.43;100.00
4735;BME280;2381;50.676;12.612;2022-08-01T02:55:01;97199.13;;;17.40;100.00
4735;BME280;2381;50.676;12.612;2022-08-01T02:58:04;97201.22;;;17.38;100.00
4735;BME280;2381;50.676;12.612;2022-08-01T03:01:09;97207.19;;;17.33;100.00
4735;BME280;2381;50.676;12.612;2022-08-01T03:04:15;97203.13;;;17.31;100.00
4735;BME280;2381;50.676;12.612;2022-08-01T03:07:20;97212.06;;;17.36;100.00
4735;BME280;2381;50.676;12.612;2022-08-01T03:10:36;97213.59;;;17.44;100.00
4735;BME280;2381;50.676;12.612;2022-08-01T03:13:41;97209.47;;;17.30;100.00
4735;BME280;2381;50.676;12.612;2022-08-01T03:16:46;97206.06;;;17.41;100.00
4735;BME280;2381;50.676;12.612;2022-08-01T03:19:52;97208.25;;;17.44;100.00
4735;BME280;2381;50.676;12.612;2022-08-01T03:22:57;97212.66;;;17.38;100.00
4735;BME280;2381;50.676;12.612;2022-08-01T03:26:03;97206.34;;;17.33;100.00
4735;BME280;2381;50.676;12.612;2022-08-01T03:29:09;97212.66;;;17.38;100.00
4735;BME280;2381;50.676;12.612;2022-08-01T03:32:13;97216.72;;;17.41;100.00
4735;BME280;2381;50.676;12.612;2022-08-01T03:35:19;97216.56;;;17.36;100.00
4735;BME280;2381;50.676;12.612;2022-08-01T03:38:25;97219.22;;;17.36;100.00
4735;BME280;2381;50.676;12.612;2022-08-01T03:41:33;97220.41;;;17.40;100.00
4735;BME280;2381;50.676;12.612;2022-08-01T03:44:39;97220.41;;;17.40;100.00
4735;BME280;2381;50.676;12.612;2022-08-01T03:47:44;97223.19;;;17.45;100.00
4735;BME280;2381;50.676;12.612;2022-08-01T03:50:51;97221.03;;;17.24;100.00
4735;BME280;2381;50.676;12.612;2022-08-01T03:53:55;97215.69;;;17.24;100.00
4735;BME280;2381;50.676;12.612;2022-08-01T03:56:59;97238.34;;;17.15;100.00
4735;BME280;2381;50.676;12.612;2022-08-01T04:00:04;97236.78;;;17.25;100.00
4735;BME280;2381;50.676;12.612;2022-08-01T04:03:16;97235.31;;;17.11;100.00
4735;BME280;2381;50.676;12.612;2022-08-01T04:06:20;97230.59;;;17.13;100.00
4735;BME280;2381;50.676;12.612;2022-08-01T04:09:23;97242.19;;;17.19;100.00
4735;BME280;2381;50.676;12.612;2022-08-01T04:12:26;97239.53;;;17.19;100.00
4735;BME280;2381;50.676;12.612;2022-08-01T04:15:29;97243.50;;;17.28;100.00
4735;BME280;2381;50.676;12.612;2022-08-01T04:18:32;97242.31;;;17.24;100.00
4735;BME280;2381;50.676;12.612;2022-08-01T04:21:37;97248.78;;;17.16;100.00
4735;BME280;2381;50.676;12.612;2022-08-01T04:24:41;97253.34;;;17.27;100.00
4735;BME280;2381;50.676;12.612;2022-08-01T04:27:47;97258.84;;;17.14;100.00
4735;BME280;2381;50.676;12.612;2022-08-01T04:30:55;97269.13;;;17.11;100.00
4735;BME280;2381;50.676;12.612;2022-08-01T04:34:04;97274.25;;;17.24;100.00
4735;BME280;2381;50.676;12.612;2022-08-01T04:37:10;97269.41;;;17.21;100.00
4735;BME280;2381;50.676;12.612;2022-08-01T04:40:14;97273.59;;;17.28;100.00
4735;BME280;2381;50.676;12.612;2022-08-01T04:43:18;97267.69;;;17.26;100.00
4735;BME280;2381;50.676;12.612;2022-08-01T04:46:22;97273.69;;;17.40;100.00
4735;BME280;2381;50.676;12.612;2022-08-01T04:49:25;97276.91;;;17.42;100.00
4735;BME280;2381;50.676;12.612;2022-08-01T04:52:33;97277.19;;;17.34;100.00
4735;BME280;2381;50.676;12.612;2022-08-01T04:55:36;97284.03;;;17.30;100.00
4735;BME280;2381;50.676;12.612;2022-08-01T04:58:39;97274.63;;;17.45;100.00
4735;BME280;2381;50.676;12.612;2022-08-01T05:01:42;97267.31;;;17.52;100.00
4735;BME280;2381;50.676;12.612;2022-08-01T05:04:50;97274.75;;;17.50;100.00
4735;BME280;2381;50.676;12.612;2022-08-01T05:07:54;97267.56;;;17.51;100.00
4735;BME280;2381;50.676;12.612;2022-08-01T05:10:57;97274.63;;;17.57;100.00
4735;BME280;2381;50.676;12.612;2022-08-01T05:14:00;97274.78;;;17.62;100.00
4735;BME280;2381;50.676;12.612;2022-08-01T05:17:04;97275.84;;;17.72;100.00
4735;BME280;2381;50.676;12.612;2022-08-01T05:20:08;97282.56;;;17.75;100.00
4735;BME280;2381;50.676;12.612;2022-08-01T05:23:12;97271.78;;;17.81;100.00
4735;BME280;2381;50.676;12.612;2022-08-01T05:26:31;97277.25;;;17.75;100.00
4735;BME280;2381;50.676;12.612;2022-08-01T05:29:36;97284.31;;;17.81;100.00
4735;BME280;2381;50.676;12.612;2022-08-01T05:32:45;97296.56;;;17.70;100.00
4735;BME280;2381;50.676;12.612;2022-08-01T05:35:47;97303.50;;;17.71;100.00
4735;BME280;2381;50.676;12.612;2022-08-01T05:38:52;97301.44;;;17.73;100.00
4735;BME280;2381;50.676;12.612;2022-08-01T05:41:55;97296.94;;;17.74;100.00
4735;BME280;2381;50.676;12.612;2022-08-01T05:44:57;97302.25;;;17.74;100.00
4735;BME280;2381;50.676;12.612;2022-08-01T05:48:00;97299.38;;;17.75;100.00
4735;BME280;2381;50.676;12.612;2022-08-01T05:51:03;97297.28;;;17.77;100.00
4735;BME280;2381;50.676;12.612;2022-08-01T05:54:07;97305.06;;;17.79;100.00
4735;BME280;2381;50.676;12.612;2022-08-01T05:57:10;97297.50;;;17.76;100.00
4735;BME280;2381;50.676;12.612;2022-08-01T06:00:15;97293.47;;;17.85;100.00
4735;BME280;2381;50.676;12.612;2022-08-01T06:03:18;97301.25;;;17.86;100.00
4735;BME280;2381;50.676;12.612;2022-08-01T06:06:21;97301.63;;;17.90;100.00
4735;BME280;2381;50.676;12.612;2022-08-01T06:09:27;97301.94;;;17.93;100.00
4735;BME280;2381;50.676;12.612;2022-08-01T06:12:32;97301.94;;;17.93;100.00
4735;BME280;2381;50.676;12.612;2022-08-01T06:15:36;97310.53;;;17.95;100.00
4735;BME280;2381;50.676;12.612;2022-08-01T06:18:39;97307.97;;;18.00;100.00
4735;BME280;2381;50.676;12.612;2022-08-01T06:21:41;97309.59;;;18.01;100.00
4735;BME280;2381;50.676;12.612;2022-08-01T06:24:46;97313.69;;;18.04;100.00
4735;BME280;2381;50.676;12.612;2022-08-01T06:27:48;97312.41;;;18.06;100.00
4735;BME280;2381;50.676;12.612;2022-08-01T06:30:51;97324.22;;;18.10;100.00
4735;BME280;2381;50.676;12.612;2022-08-01T06:33:54;97324.94;;;18.17;100.00
4735;BME280;2381;50.676;12.612;2022-08-01T06:36:58;97326.09;;;18.21;100.00
4735;BME280;2381;50.676;12.612;2022-08-01T06:40:10;97322.31;;;18.29;100.00
4735;BME280;2381;50.676;12.612;2022-08-01T06:43:18;97324.97;;;18.29;100.00
4735;BME280;2381;50.676;12.612;2022-08-01T06:46:21;97332.63;;;18.37;100.00
4735;BME280;2381;50.676;12.612;2022-08-01T06:49:30;97334.03;;;18.39;100.00
4735;BME280;2381;50.676;12.612;2022-08-01T06:52:33;97334.75;;;18.46;100.00
4735;BME280;2381;50.676;12.612;2022-08-01T06:55:38;97335.88;;;18.50;100.00
4735;BME280;2381;50.676;12.612;2022-08-01T06:58:41;97345.28;;;18.52;100.00
4735;BME280;2381;50.676;12.612;2022-08-01T07:01:44;97342.38;;;18.54;100.00
4735;BME280;2381;50.676;12.612;2022-08-01T07:04:46;97336.34;;;18.58;100.00
4735;BME280;2381;50.676;12.612;2022-08-01T07:07:49;97344.44;;;18.75;100.00
4735;BME280;2381;50.676;12.612;2022-08-01T07:10:54;97324.59;;;18.94;100.00
4735;BME280;2381;50.676;12.612;2022-08-01T07:13:57;97317.97;;;19.08;100.00
4735;BME280;2381;50.676;12.612;2022-08-01T07:17:00;97308.66;;;19.10;100.00
4735;BME280;2381;50.676;12.612;2022-08-01T07:20:04;97310.19;;;19.06;100.00
4735;BME280;2381;50.676;12.612;2022-08-01T07:23:10;97305.31;;;19.03;100.00
4735;BME280;2381;50.676;12.612;2022-08-01T07:26:15;97299.50;;;19.06;100.00
4735;BME280;2381;50.676;12.612;2022-08-01T07:29:18;97295.22;;;19.05;100.00
4735;BME280;2381;50.676;12.612;2022-08-01T07:32:21;97298.44;;;19.07;100.00
4735;BME280;2381;50.676;12.612;2022-08-01T07:35:24;97299.63;;;19.11;100.00
4735;BME280;2381;50.676;12.612;2022-08-01T07:38:27;97298.66;;;19.06;100.00
4735;BME280;2381;50.676;12.612;2022-08-01T07:41:31;97299.34;;;19.13;100.00
4735;BME280;2381;50.676;12.612;2022-08-01T07:44:54;97304.59;;;19.19;100.00
4735;BME280;2381;50.676;12.612;2022-08-01T07:48:02;97304.44;;;19.26;100.00
4735;BME280;2381;50.676;12.612;2022-08-01T07:51:09;97295.97;;;19.29;100.00
4735;BME280;2381;50.676;12.612;2022-08-01T07:54:13;97287.00;;;19.35;100.00
4735;BME280;2381;50.676;12.612;2022-08-01T07:57:17;97302.66;;;19.43;100.00
4735;BME280;2381;50.676;12.612;2022-08-01T08:00:20;97294.31;;;19.39;100.00
4735;BME280;2381;50.676;12.612;2022-08-01T08:03:23;97295.91;;;19.40;100.00
4735;BME280;2381;50.676;12.612;2022-08-01T08:06:25;97311.78;;;19.07;100.00
4735;BME280;2381;50.676;12.612;2022-08-01T08:09:28;97324.84;;;18.69;100.00
4735;BME280;2381;50.676;12.612;2022-08-01T08:12:39;97342.28;;;18.60;100.00
4735;BME280;2381;50.676;12.612;2022-08-01T08:15:43;97355.25;;;18.68;100.00
4735;BME280;2381;50.676;12.612;2022-08-01T08:18:49;97362.91;;;18.76;100.00
4735;BME280;2381;50.676;12.612;2022-08-01T08:21:51;97372.53;;;18.89;100.00
4735;BME280;2381;50.676;12.612;2022-08-01T08:24:54;97373.78;;;19.09;100.00
4735;BME280;2381;50.676;12.612;2022-08-01T08:28:02;97373.78;;;19.32;100.00
4735;BME280;2381;50.676;12.612;2022-08-01T08:31:05;97370.91;;;19.50;100.00
4735;BME280;2381;50.676;12.612;2022-08-01T08:34:27;97361.63;;;19.53;100.00
4735;BME280;2381;50.676;12.612;2022-08-01T08:37:30;97356.84;;;19.55;100.00
4735;BME280;2381;50.676;12.612;2022-08-01T08:40:39;97353.13;;;19.56;100.00
4735;BME280;2381;50.676;12.612;2022-08-01T08:43:43;97339.72;;;19.67;100.00
4735;BME280;2381;50.676;12.612;2022-08-01T08:46:48;97342.81;;;19.76;100.00
4735;BME280;2381;50.676;12.612;2022-08-01T08:49:54;97344.88;;;19.57;100.00
4735;BME280;2381;50.676;12.612;2022-08-01T08:53:00;97349.22;;;19.47;100.00
4735;BME280;2381;50.676;12.612;2022-08-01T08:56:08;97366.78;;;19.43;100.00
4735;BME280;2381;50.676;12.612;2022-08-01T08:59:13;97372.25;;;19.36;100.00
4735;BME280;2381;50.676;12.612;2022-08-01T09:02:16;97367.28;;;19.28;100.00
4735;BME280;2381;50.676;12.612;2022-08-01T09:05:18;97378.28;;;19.43;100.00
4735;BME280;2381;50.676;12.612;2022-08-01T09:08:40;97369.94;;;19.40;100.00
4735;BME280;2381;50.676;12.612;2022-08-01T09:11:43;97368.25;;;19.50;100.00
4735;BME280;2381;50.676;12.612;2022-08-01T09:14:58;97361.94;;;19.68;100.00
4735;BME280;2381;50.676;12.612;2022-08-01T09:18:01;97362.22;;;19.99;100.00
4735;BME280;2381;50.676;12.612;2022-08-01T09:21:09;97356.53;;;20.07;100.00
4735;BME280;2381;50.676;12.612;2022-08-01T09:24:15;97341.06;;;19.98;100.00
4735;BME280;2381;50.676;12.612;2022-08-01T09:27:31;97349.41;;;19.85;100.00
4735;BME280;2381;50.676;12.612;2022-08-01T09:30:38;97352.16;;;19.73;100.00
4735;BME280;2381;50.676;12.612;2022-08-01T09:33:52;97352.97;;;19.62;100.00
4735;BME280;2381;50.676;12.612;2022-08-01T09:37:00;97364.31;;;19.53;100.00
4735;BME280;2381;50.676;12.612;2022-08-01T09:40:04;97364.31;;;19.53;100.00
4735;BME280;2381;50.676;12.612;2022-08-01T09:43:10;97374.19;;;19.52;100.00
4735;BME280;2381;50.676;12.612;2022-08-01T09:46:17;97371.19;;;19.49;100.00
4735;BME280;2381;50.676;12.612;2022-08-01T09:49:29;97371.53;;;19.52;100.00
4735;BME280;2381;50.676;12.612;2022-08-01T09:52:53;97370.88;;;20.18;100.00
4735;BME280;2381;50.676;12.612;2022-08-01T09:56:08;97366.91;;;20.53;100.00
4735;BME280;2381;50.676;12.612;2022-08-01T09:59:12;97360.59;;;20.59;100.00
4735;BME280;2381;50.676;12.612;2022-08-01T10:02:30;97366.28;;;20.63;100.00
4735;BME280;2381;50.676;12.612;2022-08-01T10:05:35;97367.16;;;20.68;100.00
4735;BME280;2381;50.676;12.612;2022-08-01T10:08:45;97372.84;;;20.72;100.00
4735;BME280;2381;50.676;12.612;2022-08-01T10:11:50;97367.00;;;20.58;100.00
4735;BME280;2381;50.676;12.612;2022-08-01T10:14:53;97366.34;;;20.51;100.00
4735;BME280;2381;50.676;12.612;2022-08-01T10:18:01;97364.13;;;20.81;100.00
4735;BME280;2381;50.676;12.612;2022-08-01T10:21:16;97364.03;;;21.09;100.00
4735;BME280;2381;50.676;12.612;2022-08-01T10:24:41;97373.81;;;21.20;100.00
4735;BME280;2381;50.676;12.612;2022-08-01T10:27:46;97375.69;;;21.41;100.00
4735;BME280;2381;50.676;12.612;2022-08-01T10:30:51;97386.03;;;21.54;100.00
4735;BME280;2381;50.676;12.612;2022-08-01T10:33:57;97387.72;;;21.60;100.00
4735;BME280;2381;50.676;12.612;2022-08-01T10:37:00;97399.59;;;21.64;100.00
4735;BME280;2381;50.676;12.612;2022-08-01T10:40:06;97402.59;;;21.67;100.00
4735;BME280;2381;50.676;12.612;2022-08-01T10:43:29;97391.78;;;21.62;100.00
4735;BME280;2381;50.676;12.612;2022-08-01T10:46:34;97397.22;;;21.89;100.00
4735;BME280;2381;50.676;12.612;2022-08-01T10:49:45;97396.84;;;22.07;100.00
4735;BME280;2381;50.676;12.612;2022-08-01T10:53:06;97393.72;;;22.15;100.00
4735;BME280;2381;50.676;12.612;2022-08-01T10:56:17;97398.75;;;22.38;100.00
4735;BME280;2381;50.676;12.612;2022-08-01T10:59:21;97396.19;;;21.95;100.00
4735;BME280;2381;50.676;12.612;2022-08-01T11:02:57;97386.09;;;22.07;100.00
4735;BME280;2381;50.676;12.612;2022-08-01T11:06:04;97392.44;;;21.96;100.00
4735;BME280;2381;50.676;12.612;2022-08-01T11:09:21;97391.47;;;22.07;100.00
4735;BME280;2381;50.676;12.612;2022-08-01T11:12:38;97393.59;;;22.31;100.00
4735;BME280;2381;50.676;12.612;2022-08-01T11:15:41;97401.34;;;22.01;100.00
4735;BME280;2381;50.676;12.612;2022-08-01T11:18:51;97399.44;;;22.23;100.00
4735;BME280;2381;50.676;12.612;2022-08-01T11:21:59;97400.44;;;22.44;100.00
4735;BME280;2381;50.676;12.612;2022-08-01T11:25:05;97393.56;;;22.58;100.00
4735;BME280;2381;50.676;12.612;2022-08-01T11:28:21;97381.88;;;23.10;100.00
4735;BME280;2381;50.676;12.612;2022-08-01T11:31:35;97395.84;;;23.12;100.00
4735;BME280;2381;50.676;12.612;2022-08-01T11:34:55;97402.38;;;23.21;100.00
4735;BME280;2381;50.676;12.612;2022-08-01T11:38:23;97398.72;;;23.37;100.00
4735;BME280;2381;50.676;12.612;2022-08-01T11:41:30;97408.13;;;23.40;100.00
4735;BME280;2381;50.676;12.612;2022-08-01T11:44:48;97389.34;;;23.45;100.00
4735;BME280;2381;50.676;12.612;2022-08-01T11:47:51;97398.31;;;23.14;100.00
4735;BME280;2381;50.676;12.612;2022-08-01T11:50:56;97387.41;;;22.94;100.00
4735;BME280;2381;50.676;12.612;2022-08-01T11:54:26;97394.34;;;22.85;100.00
4735;BME280;2381;50.676;12.612;2022-08-01T11:57:36;97379.22;;;22.79;100.00
4735;BME280;2381;50.676;12.612;2022-08-01T12:00:40;97379.72;;;23.12;100.00
4735;BME280;2381;50.676;12.612;2022-08-01T12:03:44;97375.25;;;23.28;100.00
4735;BME280;2381;50.676;12.612;2022-08-01T12:06:48;97380.41;;;23.29;100.00
4735;BME280;2381;50.676;12.612;2022-08-01T12:10:00;97374.66;;;23.16;100.00
4735;BME280;2381;50.676;12.612;2022-08-01T12:13:05;97389.63;;;23.02;100.00
4735;BME280;2381;50.676;12.612;2022-08-01T12:16:09;97386.50;;;23.20;100.00
4735;BME280;2381;50.676;12.612;2022-08-01T12:19:18;97376.88;;;23.29;100.00
4735;BME280;2381;50.676;12.612;2022-08-01T12:22:22;97367.00;;;23.44;100.00
4735;BME280;2381;50.676;12.612;2022-08-01T12:25:27;97375.34;;;23.43;100.00
4735;BME280;2381;50.676;12.612;2022-08-01T12:28:38;97375.97;;;23.70;100.00
4735;BME280;2381;50.676;12.612;2022-08-01T12:31:41;97386.03;;;23.94;100.00
4735;BME280;2381;50.676;12.612;2022-08-01T12:34:44;97397.53;;;23.80;100.00
4735;BME280;2381;50.676;12.612;2022-08-01T12:37:52;97394.00;;;23.74;100.00
4735;BME280;2381;50.676;12.612;2022-08-01T12:40:58;97398.84;;;23.67;98.08
4735;BME280;2381;50.676;12.612;2022-08-01T12:44:00;97407.72;;;23.63;96.14
4735;BME280;2381;50.676;12.612;2022-08-01T12:47:05;97409.31;;;23.64;99.58
4735;BME280;2381;50.676;12.612;2022-08-01T12:50:13;97401.53;;;23.67;100.00
4735;BME280;2381;50.676;12.612;2022-08-01T12:53:16;97400.22;;;23.75;100.00
4735;BME280;2381;50.676;12.612;2022-08-01T12:56:31;97408.28;;;23.80;99.28
4735;BME280;2381;50.676;12.612;2022-08-01T12:59:34;97392.56;;;24.23;97.51
4735;BME280;2381;50.676;12.612;2022-08-01T13:02:37;97396.88;;;24.34;96.50
4735;BME280;2381;50.676;12.612;2022-08-01T13:05:44;97412.47;;;24.12;91.74
4735;BME280;2381;50.676;12.612;2022-08-01T13:08:47;97413.81;;;24.09;92.92
4735;BME280;2381;50.676;12.612;2022-08-01T13:11:53;97414.84;;;23.94;94.91
4735;BME280;2381;50.676;12.612;2022-08-01T13:15:18;97415.09;;;23.87;98.25
4735;BME280;2381;50.676;12.612;2022-08-01T13:18:24;97417.97;;;23.76;99.90
4735;BME280;2381;50.676;12.612;2022-08-01T13:21:28;97416.56;;;23.58;97.54
4735;BME280;2381;50.676;12.612;2022-08-01T13:24:51;97410.41;;;23.63;100.00
4735;BME280;2381;50.676;12.612;2022-08-01T13:28:17;97410.66;;;23.66;100.00
4735;BME280;2381;50.676;12.612;2022-08-01T13:31:32;97410.41;;;23.68;100.00
4735;BME280;2381;50.676;12.612;2022-08-01T13:34:35;97412.34;;;23.77;100.00
4735;BME280;2381;50.676;12.612;2022-08-01T13:37:41;97407.78;;;23.83;99.28
4735;BME280;2381;50.676;12.612;2022-08-01T13:40:44;97404.50;;;23.66;100.00
4735;BME280;2381;50.676;12.612;2022-08-01T13:43:49;97412.22;;;23.52;100.00
4735;BME280;2381;50.676;12.612;2022-08-01T13:47:00;97395.84;;;23.59;100.00
4735;BME280;2381;50.676;12.612;2022-08-01T13:50:17;97397.00;;;23.73;100.00
4735;BME280;2381;50.676;12.612;2022-08-01T13:53:20;97388.97;;;23.88;100.00
4735;BME280;2381;50.676;12.612;2022-08-01T13:56:25;97396.56;;;24.01;100.00
4735;BME280;2381;50.676;12.612;2022-08-01T13:59:33;97382.06;;;24.21;100.00
4735;BME280;2381;50.676;12.612;2022-08-01T14:02:36;97386.91;;;24.29;100.00
4735;BME280;2381;50.676;12.612;2022-08-01T14:05:40;97396.09;;;24.38;100.00
4735;BME280;2381;50.676;12.612;2022-08-01T14:08:44;97389.91;;;24.48;100.00
4735;BME280;2381;50.676;12.612;2022-08-01T14:11:48;97395.84;;;24.65;97.60
4735;BME280;2381;50.676;12.612;2022-08-01T14:14:54;97401.78;;;24.67;97.89
4735;BME280;2381;50.676;12.612;2022-08-01T14:17:58;97407.41;;;24.50;95.01
4735;BME280;2381;50.676;12.612;2022-08-01T14:21:06;97395.00;;;24.34;96.47
4735;BME280;2381;50.676;12.612;2022-08-01T14:24:11;97397.97;;;24.33;98.56
4735;BME280;2381;50.676;12.612;2022-08-01T14:27:14;97395.28;;;24.38;97.89
4735;BME280;2381;50.676;12.612;2022-08-01T14:30:18;97399.03;;;24.47;96.60
4735;BME280;2381;50.676;12.612;2022-08-01T14:33:21;97403.94;;;24.60;94.71
4735;BME280;2381;50.676;12.612;2022-08-01T14:36:24;97404.94;;;24.24;93.65
4735;BME280;2381;50.676;12.612;2022-08-01T14:39:31;97395.78;;;24.25;96.82
4735;BME280;2381;50.676;12.612;2022-08-01T14:42:35;97396.06;;;24.18;91.46
4735;BME280;2381;50.676;12.612;2022-08-01T14:45:40;97404.66;;;24.20;90.39
4735;BME280;2381;50.676;12.612;2022-08-01T14:48:42;97401.44;;;24.18;87.75
4735;BME280;2381;50.676;12.612;2022-08-01T14:51:45;97398.22;;;24.31;87.31
4735;BME280;2381;50.676;12.612;2022-08-01T14:54:48;97396.63;;;24.35;88.34
4735;BME280;2381;50.676;12.612;2022-08-01T14:57:51;97397.16;;;24.27;86.82
4735;BME280;2381;50.676;12.612;2022-08-01T15:00:55;97390.13;;;24.21;87.07
4735;BME280;2381;50.676;12.612;2022-08-01T15:04:00;97399.00;;;24.17;86.95
4735;BME280;2381;50.676;12.612;2022-08-01T15:07:05;97401.16;;;24.10;84.90
4735;BME280;2381;50.676;12.612;2022-08-01T15:10:09;97399.81;;;24.03;84.57
4735;BME280;2381;50.676;12.612;2022-08-01T15:13:12;97399.25;;;24.01;86.12
4735;BME280;2381;50.676;12.612;2022-08-01T15:16:16;97399.00;;;23.97;88.73
4735;BME280;2381;50.676;12.612;2022-08-01T15:19:18;97402.47;;;23.98;93.98
4735;BME280;2381;50.676;12.612;2022-08-01T15:22:24;97401.16;;;24.10;96.79
4735;BME280;2381;50.676;12.612;2022-08-01T15:25:27;97396.88;;;24.19;97.23
4735;BME280;2381;50.676;12.612;2022-08-01T15:28:42;97401.72;;;24.22;95.67
4735;BME280;2381;50.676;12.612;2022-08-01T15:31:47;97405.19;;;24.08;94.92
4735;BME280;2381;50.676;12.612;2022-08-01T15:34:49;97395.91;;;23.74;95.94
4735;BME280;2381;50.676;12.612;2022-08-01T15:37:53;97399.94;;;23.71;99.02
4735;BME280;2381;50.676;12.612;2022-08-01T15:40:55;97406.66;;;23.69;98.11
4735;BME280;2381;50.676;12.612;2022-08-01T15:43:58;97401.53;;;23.67;99.36
4735;BME280;2381;50.676;12.612;2022-08-01T15:47:05;97406.13;;;23.72;100.00
4735;BME280;2381;50.676;12.612;2022-08-01T15:50:08;97413.38;;;23.76;96.07
4735;BME280;2381;50.676;12.612;2022-08-01T15:53:14;97410.44;;;23.78;95.45
4735;BME280;2381;50.676;12.612;2022-08-01T15:56:17;97413.13;;;23.73;95.97
4735;BME280;2381;50.676;12.612;2022-08-01T15:59:20;97411.53;;;23.72;97.08
4735;BME280;2381;50.676;12.612;2022-08-01T16:02:24;97410.66;;;23.66;100.00
4735;BME280;2381;50.676;12.612;2022-08-01T16:05:27;97408.75;;;23.57;100.00
4735;BME280;2381;50.676;12.612;2022-08-01T16:08:31;97411.66;;;23.45;100.00
4735;BME280;2381;50.676;12.612;2022-08-01T16:11:34;97407.56;;;23.38;100.00
4735;BME280;2381;50.676;12.612;2022-08-01T16:14:43;97405.16;;;23.36;100.00
4735;BME280;2381;50.676;12.612;2022-08-01T16:17:47;97395.25;;;23.42;100.00
4735;BME280;2381;50.676;12.612;2022-08-01T16:20:50;97400.69;;;23.52;100.00
4735;BME280;2381;50.676;12.612;2022-08-01T16:23:53;97407.63;;;23.43;100.00
4735;BME280;2381;50.676;12.612;2022-08-01T16:26:56;97404.94;;;23.48;100.00
4735;BME280;2381;50.676;12.612;2022-08-01T16:29:58;97402.88;;;23.70;100.00